sensor_id;sensor_type;location;lat;lon;timestamp;pressure;altitude;pressure_sealevel;temperature;humidity
11172;BME280;5642;50.830;12.082;2023-12-14T00:01:05;98218.47;;;10.86;53.92
11172;BME280;5642;50.830;12.082;2023-12-14T00:03:42;98207.69;;;10.75;54.32
11172;BME280;5642;50.830;12.082;2023-12-14T00:06:11;98218.69;;;10.81;54.18
11172;BME280;5642;50.830;12.082;2023-12-14T00:08:41;98272.84;;;11.15;54.09
11172;BME280;5642;50.830;12.082;2023-12-14T00:11:16;98272.22;;;11.10;54.31
11172;BME280;5642;50.830;12.082;2023-12-14T00:13:49;98278.91;;;11.16;54.34
11172;BME280;5642;50.830;12.082;2023-12-14T00:16:19;98276.59;;;11.10;53.90
11172;BME280;5642;50.830;12.082;2023-12-14T00:18:45;98293.56;;;11.20;54.20
11172;BME280;5642;50.830;12.082;2023-12-14T00:21:33;98292.72;;;11.19;54.07
11172;BME280;5642;50.830;12.082;2023-12-14T00:24:01;98294.56;;;11.17;54.09
11172;BME280;5642;50.830;12.082;2023-12-14T00:26:36;98308.13;;;11.25;54.20
11172;BME280;5642;50.830;12.082;2023-12-14T00:29:19;98286.69;;;11.17;54.22
11172;BME280;5642;50.830;12.082;2023-12-14T00:32:03;98296.13;;;11.21;54.29
11172;BME280;5642;50.830;12.082;2023-12-14T00:34:31;98299.34;;;11.26;54.28
11172;BME280;5642;50.830;12.082;2023-12-14T00:36:59;98314.75;;;11.32;54.35
11172;BME280;5642;50.830;12.082;2023-12-14T00:39:33;98311.44;;;11.29;54.13
11172;BME280;5642;50.830;12.082;2023-12-14T00:42:10;98320.06;;;11.31;54.31
11172;BME280;5642;50.830;12.082;2023-12-14T00:44:52;98336.25;;;11.39;54.23
11172;BME280;5642;50.830;12.082;2023-12-14T00:47:18;98271.63;;;11.05;54.12
11172;BME280;5642;50.830;12.082;2023-12-14T00:49:57;98337.03;;;11.41;53.95
11172;BME280;5642;50.830;12.082;2023-12-14T00:52:26;98340.25;;;11.46;53.96
11172;BME280;5642;50.830;12.082;2023-12-14T00:54:56;98308.19;;;11.24;54.08
11172;BME280;5642;50.830;12.082;2023-12-14T00:57:38;98349.66;;;11.50;54.00
11172;BME280;5642;50.830;12.082;2023-12-14T01:00:18;98354.06;;;11.50;53.91
11172;BME280;5642;50.830;12.082;2023-12-14T01:02:46;98302.69;;;11.13;54.34
11172;BME280;5642;50.830;12.082;2023-12-14T01:05:15;98330.47;;;11.32;53.92
11172;BME280;5642;50.830;12.082;2023-12-14T01:07:47;98324.78;;;11.24;53.92
11172;BME280;5642;50.830;12.082;2023-12-14T01:10:13;98353.34;;;11.46;54.07
11172;BME280;5642;50.830;12.082;2023-12-14T01:12:43;98367.00;;;11.53;53.96
11172;BME280;5642;50.830;12.082;2023-12-14T01:15:10;98390.81;;;11.65;54.15
11172;BME280;5642;50.830;12.082;2023-12-14T01:17:43;98379.50;;;11.65;53.96
11172;BME280;5642;50.830;12.082;2023-12-14T01:20:24;98339.78;;;11.38;53.84
11172;BME280;5642;50.830;12.082;2023-12-14T01:23:02;98358.38;;;11.51;53.93
11172;BME280;5642;50.830;12.082;2023-12-14T01:25:35;98376.50;;;11.55;54.05
11172;BME280;5642;50.830;12.082;2023-12-14T01:28:04;98373.88;;;11.55;53.97
11172;BME280;5642;50.830;12.082;2023-12-14T01:30:37;98361.41;;;11.43;53.89
11172;BME280;5642;50.830;12.082;2023-12-14T01:33:11;98378.13;;;11.58;53.75
11172;BME280;5642;50.830;12.082;2023-12-14T01:35:43;98385.97;;;11.58;54.06
11172;BME280;5642;50.830;12.082;2023-12-14T01:38:10;98343.75;;;11.29;54.17
11172;BME280;5642;50.830;12.082;2023-12-14T01:40:49;98379.38;;;11.51;53.99
11172;BME280;5642;50.830;12.082;2023-12-14T01:43:18;98390.38;;;11.57;54.00
11172;BME280;5642;50.830;12.082;2023-12-14T01:45:50;98410.97;;;11.65;54.27
11172;BME280;5642;50.830;12.082;2023-12-14T01:48:17;98404.09;;;11.62;54.11
11172;BME280;5642;50.830;12.082;2023-12-14T01:50:49;98421.88;;;11.73;54.26
11172;BME280;5642;50.830;12.082;2023-12-14T01:53:16;98402.00;;;11.69;54.05
11172;BME280;5642;50.830;12.082;2023-12-14T01:55:46;98380.09;;;11.53;53.88
11172;BME280;5642;50.830;12.082;2023-12-14T01:58:25;98428.53;;;11.80;53.64
11172;BME280;5642;50.830;12.082;2023-12-14T02:03:28;98428.72;;;11.77;53.67
11172;BME280;5642;50.830;12.082;2023-12-14T02:06:07;98416.09;;;11.66;53.82
11172;BME280;5642;50.830;12.082;2023-12-14T02:09:04;98445.31;;;11.77;54.10
11172;BME280;5642;50.830;12.082;2023-12-14T02:11:44;98445.25;;;11.79;54.21
11172;BME280;5642;50.830;12.082;2023-12-14T02:14:12;98426.94;;;11.77;53.95
11172;BME280;5642;50.830;12.082;2023-12-14T02:16:50;98434.63;;;11.81;53.85
11172;BME280;5642;50.830;12.082;2023-12-14T02:19:21;98426.16;;;11.75;53.74
11172;BME280;5642;50.830;12.082;2023-12-14T02:22:02;98432.88;;;11.81;53.79
11172;BME280;5642;50.830;12.082;2023-12-14T02:24:38;98451.75;;;11.88;53.75
11172;BME280;5642;50.830;12.082;2023-12-14T02:27:23;98429.72;;;11.74;53.96
11172;BME280;5642;50.830;12.082;2023-12-14T02:30:00;98455.16;;;11.90;54.04
11172;BME280;5642;50.830;12.082;2023-12-14T02:32:38;98449.25;;;11.86;53.76
11172;BME280;5642;50.830;12.082;2023-12-14T02:35:19;98455.56;;;11.82;53.69
11172;BME280;5642;50.830;12.082;2023-12-14T02:37:53;98456.94;;;11.89;54.12
11172;BME280;5642;50.830;12.082;2023-12-14T02:40:19;98457.94;;;11.87;53.75
11172;BME280;5642;50.830;12.082;2023-12-14T02:43:00;98423.31;;;11.63;53.75
11172;BME280;5642;50.830;12.082;2023-12-14T02:45:33;98462.50;;;11.83;54.05
11172;BME280;5642;50.830;12.082;2023-12-14T02:48:03;98457.25;;;11.83;53.77
11172;BME280;5642;50.830;12.082;2023-12-14T02:50:30;98460.81;;;11.82;53.84
11172;BME280;5642;50.830;12.082;2023-12-14T02:53:11;98472.84;;;11.86;54.08
11172;BME280;5642;50.830;12.082;2023-12-14T02:55:54;98486.50;;;11.93;53.84
11172;BME280;5642;50.830;12.082;2023-12-14T02:58:22;98483.03;;;11.92;53.86
11172;BME280;5642;50.830;12.082;2023-12-14T03:00:52;98487.03;;;11.99;53.96
11172;BME280;5642;50.830;12.082;2023-12-14T03:03:25;98464.03;;;11.87;53.93
11172;BME280;5642;50.830;12.082;2023-12-14T03:05:51;98476.88;;;11.93;53.63
11172;BME280;5642;50.830;12.082;2023-12-14T03:08:28;98469.28;;;11.87;53.61
11172;BME280;5642;50.830;12.082;2023-12-14T03:11:21;98501.09;;;11.98;53.52
11172;BME280;5642;50.830;12.082;2023-12-14T03:14:04;98468.91;;;11.77;53.56
11172;BME280;5642;50.830;12.082;2023-12-14T03:16:31;98490.91;;;11.92;53.92
11172;BME280;5642;50.830;12.082;2023-12-14T03:19:07;98487.75;;;11.86;54.13
11172;BME280;5642;50.830;12.082;2023-12-14T03:21:47;98504.94;;;11.91;54.09
11172;BME280;5642;50.830;12.082;2023-12-14T03:24:21;98465.94;;;11.66;53.75
11172;BME280;5642;50.830;12.082;2023-12-14T03:26:49;98515.59;;;11.88;53.54
11172;BME280;5642;50.830;12.082;2023-12-14T03:29:16;98500.88;;;11.86;54.10
11172;BME280;5642;50.830;12.082;2023-12-14T03:32:01;98520.50;;;11.94;53.75
11172;BME280;5642;50.830;12.082;2023-12-14T03:34:43;98530.94;;;11.96;53.73
11172;BME280;5642;50.830;12.082;2023-12-14T03:37:10;98542.47;;;11.93;53.76
11172;BME280;5642;50.830;12.082;2023-12-14T03:39:41;98531.31;;;11.88;54.07
11172;BME280;5642;50.830;12.082;2023-12-14T03:42:07;98539.13;;;11.90;53.89
11172;BME280;5642;50.830;12.082;2023-12-14T03:44:36;98545.22;;;11.90;53.79
11172;BME280;5642;50.830;12.082;2023-12-14T03:47:04;98543.69;;;11.86;53.68
11172;BME280;5642;50.830;12.082;2023-12-14T03:49:50;98533.09;;;11.70;53.81
11172;BME280;5642;50.830;12.082;2023-12-14T03:52:46;98544.75;;;11.65;54.12
11172;BME280;5642;50.830;12.082;2023-12-14T03:55:27;98552.44;;;11.68;54.01
11172;BME280;5642;50.830;12.082;2023-12-14T03:57:54;98573.94;;;11.76;53.73
11172;BME280;5642;50.830;12.082;2023-12-14T04:00:37;98552.03;;;11.58;53.89
11172;BME280;5642;50.830;12.082;2023-12-14T04:03:21;98579.53;;;11.68;53.98
11172;BME280;5642;50.830;12.082;2023-12-14T04:05:47;98586.53;;;11.68;53.83
11172;BME280;5642;50.830;12.082;2023-12-14T04:08:24;98586.91;;;11.60;53.87
11172;BME280;5642;50.830;12.082;2023-12-14T04:10:52;98581.56;;;11.45;54.26
11172;BME280;5642;50.830;12.082;2023-12-14T04:13:33;98581.72;;;11.42;54.29
11172;BME280;5642;50.830;12.082;2023-12-14T04:16:00;98607.50;;;11.51;54.37
11172;BME280;5642;50.830;12.082;2023-12-14T04:18:26;98597.28;;;11.45;54.04
11172;BME280;5642;50.830;12.082;2023-12-14T04:21:08;98580.75;;;11.25;54.15
11172;BME280;5642;50.830;12.082;2023-12-14T04:23:42;98572.53;;;11.14;54.02
11172;BME280;5642;50.830;12.082;2023-12-14T04:26:23;98628.00;;;11.43;53.97
11172;BME280;5642;50.830;12.082;2023-12-14T04:28:50;98560.34;;;10.94;54.24
11172;BME280;5642;50.830;12.082;2023-12-14T04:31:20;98640.44;;;11.37;54.18
11172;BME280;5642;50.830;12.082;2023-12-14T04:33:56;98603.91;;;11.16;54.14
11172;BME280;5642;50.830;12.082;2023-12-14T04:36:41;98633.59;;;11.35;54.21
11172;BME280;5642;50.830;12.082;2023-12-14T04:39:32;98656.28;;;11.36;54.13
11172;BME280;5642;50.830;12.082;2023-12-14T04:42:03;98645.06;;;11.32;54.22
11172;BME280;5642;50.830;12.082;2023-12-14T04:44:36;98652.25;;;11.29;54.00
11172;BME280;5642;50.830;12.082;2023-12-14T04:47:19;98615.19;;;10.99;54.26
11172;BME280;5642;50.830;12.082;2023-12-14T04:49:52;98649.31;;;11.16;54.40
11172;BME280;5642;50.830;12.082;2023-12-14T04:52:26;98613.13;;;10.87;54.13
11172;BME280;5642;50.830;12.082;2023-12-14T04:55:04;98660.25;;;11.07;54.35
11172;BME280;5642;50.830;12.082;2023-12-14T04:57:43;98645.38;;;10.87;54.10
11172;BME280;5642;50.830;12.082;2023-12-14T05:00:10;98675.38;;;11.01;54.38
11172;BME280;5642;50.830;12.082;2023-12-14T05:02:52;98690.25;;;11.00;54.11
11172;BME280;5642;50.830;12.082;2023-12-14T05:05:30;98682.88;;;10.89;54.08
11172;BME280;5642;50.830;12.082;2023-12-14T05:08:27;98699.31;;;10.93;54.12
11172;BME280;5642;50.830;12.082;2023-12-14T05:10:54;98654.19;;;10.66;54.14
11172;BME280;5642;50.830;12.082;2023-12-14T05:13:43;98643.69;;;10.47;54.30
11172;BME280;5642;50.830;12.082;2023-12-14T05:16:28;98613.13;;;10.28;54.50
11172;BME280;5642;50.830;12.082;2023-12-14T05:18:57;98667.66;;;10.58;54.50
11172;BME280;5642;50.830;12.082;2023-12-14T05:21:35;98703.56;;;10.75;54.17
11172;BME280;5642;50.830;12.082;2023-12-14T05:24:07;98714.84;;;10.77;54.27
11172;BME280;5642;50.830;12.082;2023-12-14T05:26:46;98688.72;;;10.55;54.33
11172;BME280;5642;50.830;12.082;2023-12-14T05:29:30;98659.06;;;10.35;54.46
11172;BME280;5642;50.830;12.082;2023-12-14T05:32:18;98725.69;;;10.68;54.52
11172;BME280;5642;50.830;12.082;2023-12-14T05:35:00;98736.00;;;10.73;54.49
11172;BME280;5642;50.830;12.082;2023-12-14T05:37:32;98719.19;;;10.58;54.19
11172;BME280;5642;50.830;12.082;2023-12-14T05:39:59;98657.75;;;10.25;54.24
11172;BME280;5642;50.830;12.082;2023-12-14T05:42:44;98708.81;;;10.55;54.51
11172;BME280;5642;50.830;12.082;2023-12-14T05:45:27;98746.22;;;10.79;54.33
11172;BME280;5642;50.830;12.082;2023-12-14T05:48:05;98754.84;;;10.81;54.45
11172;BME280;5642;50.830;12.082;2023-12-14T05:50:46;98738.69;;;10.71;54.24
11172;BME280;5642;50.830;12.082;2023-12-14T05:53:26;98766.06;;;10.84;54.56
11172;BME280;5642;50.830;12.082;2023-12-14T05:56:06;98720.84;;;10.59;54.67
11172;BME280;5642;50.830;12.082;2023-12-14T05:58:50;98710.19;;;10.43;54.38
11172;BME280;5642;50.830;12.082;2023-12-14T06:01:20;98706.56;;;10.46;54.71
11172;BME280;5642;50.830;12.082;2023-12-14T06:03:54;98786.69;;;10.92;54.48
11172;BME280;5642;50.830;12.082;2023-12-14T06:06:20;98787.41;;;10.95;54.64
11172;BME280;5642;50.830;12.082;2023-12-14T06:08:50;98754.34;;;10.73;54.41
11172;BME280;5642;50.830;12.082;2023-12-14T06:11:31;98772.09;;;10.86;54.78
11172;BME280;5642;50.830;12.082;2023-12-14T06:14:11;98792.84;;;10.91;54.50
11172;BME280;5642;50.830;12.082;2023-12-14T06:16:53;98734.16;;;10.54;54.33
11172;BME280;5642;50.830;12.082;2023-12-14T06:19:35;98810.00;;;10.98;54.70
11172;BME280;5642;50.830;12.082;2023-12-14T06:22:04;98756.53;;;10.62;54.25
11172;BME280;5642;50.830;12.082;2023-12-14T06:24:42;98731.06;;;10.45;54.61
11172;BME280;5642;50.830;12.082;2023-12-14T06:27:08;98827.50;;;10.97;54.13
11172;BME280;5642;50.830;12.082;2023-12-14T06:29:34;98783.16;;;10.73;54.47
11172;BME280;5642;50.830;12.082;2023-12-14T06:32:21;98791.97;;;10.70;54.17
11172;BME280;5642;50.830;12.082;2023-12-14T06:34:50;98834.13;;;10.86;54.35
11172;BME280;5642;50.830;12.082;2023-12-14T06:37:32;98823.94;;;10.78;54.26
11172;BME280;5642;50.830;12.082;2023-12-14T06:40:08;98819.09;;;10.69;54.25
11172;BME280;5642;50.830;12.082;2023-12-14T06:42:56;98769.88;;;10.35;54.17
11172;BME280;5642;50.830;12.082;2023-12-14T06:45:39;98812.00;;;10.51;54.34
11172;BME280;5642;50.830;12.082;2023-12-14T06:48:29;98807.84;;;10.45;54.23
11172;BME280;5642;50.830;12.082;2023-12-14T06:51:14;98788.50;;;10.28;54.38
11172;BME280;5642;50.830;12.082;2023-12-14T06:53:45;98802.25;;;10.33;54.23
11172;BME280;5642;50.830;12.082;2023-12-14T06:56:15;98873.88;;;10.74;54.04
11172;BME280;5642;50.830;12.082;2023-12-14T06:58:53;98796.53;;;10.23;54.28
11172;BME280;5642;50.830;12.082;2023-12-14T07:01:38;98826.00;;;10.28;54.38
11172;BME280;5642;50.830;12.082;2023-12-14T07:04:11;98884.06;;;10.59;54.47
11172;BME280;5642;50.830;12.082;2023-12-14T07:06:57;98902.09;;;10.67;54.26
11172;BME280;5642;50.830;12.082;2023-12-14T07:09:32;98851.94;;;10.34;54.25
11172;BME280;5642;50.830;12.082;2023-12-14T07:12:01;98913.31;;;10.71;54.39
11172;BME280;5642;50.830;12.082;2023-12-14T07:14:29;98881.03;;;10.48;54.52
11172;BME280;5642;50.830;12.082;2023-12-14T07:17:06;98889.69;;;10.50;54.44
11172;BME280;5642;50.830;12.082;2023-12-14T07:19:42;98917.75;;;10.69;54.08
11172;BME280;5642;50.830;12.082;2023-12-14T07:22:09;98938.41;;;10.76;54.22
11172;BME280;5642;50.830;12.082;2023-12-14T07:24:44;98930.06;;;10.67;54.35
11172;BME280;5642;50.830;12.082;2023-12-14T07:27:23;98863.38;;;10.32;54.12
11172;BME280;5642;50.830;12.082;2023-12-14T07:29:52;98856.00;;;10.19;54.26
11172;BME280;5642;50.830;12.082;2023-12-14T07:32:18;98928.44;;;10.64;54.36
11172;BME280;5642;50.830;12.082;2023-12-14T07:34:45;98892.84;;;10.37;54.06
11172;BME280;5642;50.830;12.082;2023-12-14T07:37:20;98940.63;;;10.65;54.22
11172;BME280;5642;50.830;12.082;2023-12-14T07:40:01;98851.25;;;10.06;54.31
11172;BME280;5642;50.830;12.082;2023-12-14T07:42:32;98896.31;;;10.37;54.32
11172;BME280;5642;50.830;12.082;2023-12-14T07:45:00;98924.75;;;10.46;54.06
11172;BME280;5642;50.830;12.082;2023-12-14T07:47:28;98976.06;;;10.74;54.13
11172;BME280;5642;50.830;12.082;2023-12-14T07:50:13;98980.69;;;10.67;54.24
11172;BME280;5642;50.830;12.082;2023-12-14T07:52:59;98945.59;;;10.49;54.36
11172;BME280;5642;50.830;12.082;2023-12-14T07:55:42;98999.63;;;10.74;54.20
11172;BME280;5642;50.830;12.082;2023-12-14T07:58:19;98921.09;;;10.29;54.10
11172;BME280;5642;50.830;12.082;2023-12-14T08:00:55;98943.56;;;10.34;54.28
11172;BME280;5642;50.830;12.082;2023-12-14T08:03:23;98978.72;;;10.50;54.15
11172;BME280;5642;50.830;12.082;2023-12-14T08:05:55;99020.53;;;10.75;54.08
11172;BME280;5642;50.830;12.082;2023-12-14T08:08:22;99020.78;;;10.69;54.24
11172;BME280;5642;50.830;12.082;2023-12-14T08:10:56;99033.69;;;10.74;54.25
11172;BME280;5642;50.830;12.082;2023-12-14T08:13:23;99042.59;;;10.70;54.18
11172;BME280;5642;50.830;12.082;2023-12-14T08:15:53;98981.00;;;10.36;54.25
11172;BME280;5642;50.830;12.082;2023-12-14T08:18:34;99045.25;;;10.68;54.33
11172;BME280;5642;50.830;12.082;2023-12-14T08:21:05;98989.78;;;10.35;54.19
11172;BME280;5642;50.830;12.082;2023-12-14T08:23:49;98989.78;;;10.35;53.83
11172;BME280;5642;50.830;12.082;2023-12-14T08:26:21;99028.09;;;10.59;54.21
11172;BME280;5642;50.830;12.082;2023-12-14T08:29:05;99022.97;;;10.58;54.00
11172;BME280;5642;50.830;12.082;2023-12-14T08:31:33;99003.59;;;10.39;53.88
11172;BME280;5642;50.830;12.082;2023-12-14T08:34:12;98971.31;;;10.15;53.95
11172;BME280;5642;50.830;12.082;2023-12-14T08:36:51;98969.75;;;10.09;54.27
11172;BME280;5642;50.830;12.082;2023-12-14T08:39:20;98962.97;;;10.04;54.12
11172;BME280;5642;50.830;12.082;2023-12-14T08:41:48;99069.09;;;10.60;54.27
11172;BME280;5642;50.830;12.082;2023-12-14T08:44:34;99029.38;;;10.26;54.32
11172;BME280;5642;50.830;12.082;2023-12-14T08:47:04;99008.84;;;10.14;54.17
11172;BME280;5642;50.830;12.082;2023-12-14T08:49:38;99041.78;;;10.21;54.26
11172;BME280;5642;50.830;12.082;2023-12-14T08:52:10;99096.66;;;10.47;54.37
11172;BME280;5642;50.830;12.082;2023-12-14T08:54:39;99096.06;;;10.39;54.26
11172;BME280;5642;50.830;12.082;2023-12-14T08:57:30;99114.19;;;10.45;54.39
11172;BME280;5642;50.830;12.082;2023-12-14T09:00:06;99107.41;;;10.40;54.60
11172;BME280;5642;50.830;12.082;2023-12-14T09:02:44;99092.88;;;10.31;54.43
11172;BME280;5642;50.830;12.082;2023-12-14T09:05:15;99054.41;;;10.08;54.13
11172;BME280;5642;50.830;12.082;2023-12-14T09:07:48;99126.31;;;10.48;54.48
11172;BME280;5642;50.830;12.082;2023-12-14T09:10:41;99104.75;;;10.41;54.22
11172;BME280;5642;50.830;12.082;2023-12-14T09:13:17;99112.41;;;10.46;54.42
11172;BME280;5642;50.830;12.082;2023-12-14T09:16:00;99058.44;;;10.18;54.21
11172;BME280;5642;50.830;12.082;2023-12-14T09:18:40;99116.31;;;10.59;54.32
11172;BME280;5642;50.830;12.082;2023-12-14T09:21:06;99103.34;;;10.56;54.16
11172;BME280;5642;50.830;12.082;2023-12-14T09:23:38;99155.34;;;10.90;54.03
11172;BME280;5642;50.830;12.082;2023-12-14T09:26:09;99155.81;;;11.01;54.11
11172;BME280;5642;50.830;12.082;2023-12-14T09:28:47;99104.31;;;10.77;54.10
11172;BME280;5642;50.830;12.082;2023-12-14T09:31:28;99070.78;;;10.63;53.86
11172;BME280;5642;50.830;12.082;2023-12-14T09:34:10;99093.78;;;10.78;53.67
11172;BME280;5642;50.830;12.082;2023-12-14T09:36:50;99092.97;;;10.76;53.93
11172;BME280;5642;50.830;12.082;2023-12-14T09:39:21;99094.69;;;10.77;53.91
11172;BME280;5642;50.830;12.082;2023-12-14T09:42:06;99096.69;;;10.71;53.86
11172;BME280;5642;50.830;12.082;2023-12-14T09:44:35;99150.44;;;11.04;53.89
11172;BME280;5642;50.830;12.082;2023-12-14T09:47:30;99128.19;;;10.92;53.79
11172;BME280;5642;50.830;12.082;2023-12-14T09:50:07;99126.56;;;10.88;53.74
11172;BME280;5642;50.830;12.082;2023-12-14T09:52:52;99198.31;;;11.32;54.02
11172;BME280;5642;50.830;12.082;2023-12-14T09:55:19;99106.03;;;10.78;53.81
11172;BME280;5642;50.830;12.082;2023-12-14T09:58:03;99145.50;;;10.96;53.98
11172;BME280;5642;50.830;12.082;2023-12-14T10:00:40;99195.44;;;11.38;54.01
11172;BME280;5642;50.830;12.082;2023-12-14T10:03:25;99151.94;;;11.11;53.79
11172;BME280;5642;50.830;12.082;2023-12-14T10:06:11;99205.94;;;11.38;54.05
11172;BME280;5642;50.830;12.082;2023-12-14T10:09:01;99177.75;;;11.22;53.62
11172;BME280;5642;50.830;12.082;2023-12-14T10:11:44;99163.94;;;11.17;53.87
11172;BME280;5642;50.830;12.082;2023-12-14T10:14:22;99116.66;;;10.96;53.58
11172;BME280;5642;50.830;12.082;2023-12-14T10:17:19;99164.47;;;11.26;53.38
11172;BME280;5642;50.830;12.082;2023-12-14T10:20:01;99173.59;;;11.38;53.72
11172;BME280;5642;50.830;12.082;2023-12-14T10:22:44;99196.91;;;11.46;53.69
11172;BME280;5642;50.830;12.082;2023-12-14T10:25:35;99198.69;;;11.45;53.42
11172;BME280;5642;50.830;12.082;2023-12-14T10:28:22;99211.75;;;11.47;53.48
11172;BME280;5642;50.830;12.082;2023-12-14T10:30:55;99145.09;;;11.07;53.19
11172;BME280;5642;50.830;12.082;2023-12-14T10:33:29;99224.84;;;11.47;53.54
11172;BME280;5642;50.830;12.082;2023-12-14T10:36:15;99228.56;;;11.41;53.33
11172;BME280;5642;50.830;12.082;2023-12-14T10:39:00;99232.06;;;11.42;53.66
11172;BME280;5642;50.830;12.082;2023-12-14T10:41:34;99182.47;;;11.12;53.60
11172;BME280;5642;50.830;12.082;2023-12-14T10:44:19;99206.47;;;11.25;53.27
11172;BME280;5642;50.830;12.082;2023-12-14T10:46:58;99199.16;;;11.10;53.33
11172;BME280;5642;50.830;12.082;2023-12-14T10:49:34;99174.16;;;11.01;53.26
11172;BME280;5642;50.830;12.082;2023-12-14T10:52:16;99160.72;;;10.87;53.46
11172;BME280;5642;50.830;12.082;2023-12-14T10:54:52;99165.81;;;10.90;53.15
11172;BME280;5642;50.830;12.082;2023-12-14T10:57:41;99189.13;;;10.97;53.48
11172;BME280;5642;50.830;12.082;2023-12-14T11:00:16;99224.41;;;11.12;53.38
11172;BME280;5642;50.830;12.082;2023-12-14T11:03:13;99254.56;;;11.24;53.49
11172;BME280;5642;50.830;12.082;2023-12-14T11:05:45;99214.47;;;10.97;53.49
11172;BME280;5642;50.830;12.082;2023-12-14T11:08:44;99270.38;;;11.22;53.46
11172;BME280;5642;50.830;12.082;2023-12-14T11:14:36;99287.81;;;10.98;53.60
11172;BME280;5642;50.830;12.082;2023-12-14T11:17:21;99279.41;;;10.89;53.55
11172;BME280;5642;50.830;12.082;2023-12-14T11:20:24;99300.31;;;10.90;53.61
11172;BME280;5642;50.830;12.082;2023-12-14T11:22:55;99295.31;;;10.84;53.68
11172;BME280;5642;50.830;12.082;2023-12-14T11:25:54;99238.31;;;10.40;53.66
11172;BME280;5642;50.830;12.082;2023-12-14T11:28:27;99297.41;;;10.73;53.61
11172;BME280;5642;50.830;12.082;2023-12-14T11:30:54;99254.69;;;10.46;53.72
11172;BME280;5642;50.830;12.082;2023-12-14T11:33:41;99288.63;;;10.49;53.69
11172;BME280;5642;50.830;12.082;2023-12-14T11:36:16;99332.44;;;10.71;53.93
11172;BME280;5642;50.830;12.082;2023-12-14T11:38:43;99314.38;;;10.63;53.85
11172;BME280;5642;50.830;12.082;2023-12-14T11:41:18;99310.19;;;10.57;53.96
11172;BME280;5642;50.830;12.082;2023-12-14T11:43:49;99335.94;;;10.71;53.84
11172;BME280;5642;50.830;12.082;2023-12-14T11:46:22;99339.44;;;10.70;53.81
11172;BME280;5642;50.830;12.082;2023-12-14T11:48:50;99293.97;;;10.46;53.97
11172;BME280;5642;50.830;12.082;2023-12-14T11:51:34;99321.38;;;10.63;53.98
11172;BME280;5642;50.830;12.082;2023-12-14T11:54:04;99317.88;;;10.62;53.82
11172;BME280;5642;50.830;12.082;2023-12-14T11:56:38;99352.09;;;10.84;53.76
11172;BME280;5642;50.830;12.082;2023-12-14T11:59:19;99276.66;;;10.42;53.72
11172;BME280;5642;50.830;12.082;2023-12-14T12:04:25;99356.91;;;10.96;53.83
11172;BME280;5642;50.830;12.082;2023-12-14T12:07:04;99348.25;;;10.94;53.64
11172;BME280;5642;50.830;12.082;2023-12-14T12:09:42;99342.91;;;10.97;53.76
11172;BME280;5642;50.830;12.082;2023-12-14T12:12:24;99367.78;;;11.10;53.52
11172;BME280;5642;50.830;12.082;2023-12-14T12:14:50;99365.97;;;11.12;53.68
11172;BME280;5642;50.830;12.082;2023-12-14T12:17:25;99367.78;;;11.10;53.62
11172;BME280;5642;50.830;12.082;2023-12-14T12:19:52;99363.53;;;11.08;53.59
11172;BME280;5642;50.830;12.082;2023-12-14T12:22:18;99270.19;;;10.52;53.69
11172;BME280;5642;50.830;12.082;2023-12-14T12:24:49;99298.41;;;10.71;53.61
11172;BME280;5642;50.830;12.082;2023-12-14T12:27:31;99376.25;;;11.18;53.55
11172;BME280;5642;50.830;12.082;2023-12-14T12:30:17;99364.41;;;11.07;53.68
11172;BME280;5642;50.830;12.082;2023-12-14T12:32:58;99354.28;;;10.96;53.71
11172;BME280;5642;50.830;12.082;2023-12-14T12:35:25;99381.00;;;11.07;53.45
11172;BME280;5642;50.830;12.082;2023-12-14T12:37:55;99369.28;;;10.92;53.53
11172;BME280;5642;50.830;12.082;2023-12-14T12:40:31;99367.75;;;10.85;53.49
11172;BME280;5642;50.830;12.082;2023-12-14T12:42:59;99366.47;;;10.72;53.33
11172;BME280;5642;50.830;12.082;2023-12-14T12:45:37;99369.16;;;10.69;53.66
11172;BME280;5642;50.830;12.082;2023-12-14T12:48:16;99387.31;;;10.75;53.53
11172;BME280;5642;50.830;12.082;2023-12-14T12:50:54;99374.41;;;10.69;53.75
11172;BME280;5642;50.830;12.082;2023-12-14T12:53:38;99390.63;;;10.80;53.56
11172;BME280;5642;50.830;12.082;2023-12-14T12:56:17;99387.91;;;10.83;53.51
11172;BME280;5642;50.830;12.082;2023-12-14T12:59:12;99395.47;;;10.92;53.58
11172;BME280;5642;50.830;12.082;2023-12-14T13:01:48;99392.53;;;11.02;53.47
11172;BME280;5642;50.830;12.082;2023-12-14T13:04:27;99399.50;;;11.03;53.87
11172;BME280;5642;50.830;12.082;2023-12-14T13:06:58;99326.94;;;10.52;53.28
11172;BME280;5642;50.830;12.082;2023-12-14T13:09:40;99395.59;;;10.88;53.12
11172;BME280;5642;50.830;12.082;2023-12-14T13:12:06;99394.06;;;10.82;53.49
11172;BME280;5642;50.830;12.082;2023-12-14T13:14:53;99362.81;;;10.50;53.57
11172;BME280;5642;50.830;12.082;2023-12-14T13:17:33;99389.63;;;10.58;53.55
11172;BME280;5642;50.830;12.082;2023-12-14T13:20:18;99317.94;;;10.05;53.34
11172;BME280;5642;50.830;12.082;2023-12-14T13:22:57;99428.84;;;10.59;53.83
11172;BME280;5642;50.830;12.082;2023-12-14T13:25:37;99430.88;;;10.51;53.60
11172;BME280;5642;50.830;12.082;2023-12-14T13:28:25;99443.25;;;10.45;53.78
11172;BME280;5642;50.830;12.082;2023-12-14T13:31:14;99368.97;;;9.90;53.62
11172;BME280;5642;50.830;12.082;2023-12-14T13:33:42;99451.50;;;10.33;53.76
11172;BME280;5642;50.830;12.082;2023-12-14T13:36:15;99402.06;;;9.93;53.47
11172;BME280;5642;50.830;12.082;2023-12-14T13:38:53;99377.44;;;9.69;53.73
11172;BME280;5642;50.830;12.082;2023-12-14T13:41:22;99371.56;;;9.61;53.78
11172;BME280;5642;50.830;12.082;2023-12-14T13:43:49;99364.03;;;9.50;53.76
11172;BME280;5642;50.830;12.082;2023-12-14T13:46:36;99378.00;;;9.49;53.72
11172;BME280;5642;50.830;12.082;2023-12-14T13:49:15;99391.56;;;9.63;53.91
11172;BME280;5642;50.830;12.082;2023-12-14T13:51:55;99479.34;;;10.04;53.91
11172;BME280;5642;50.830;12.082;2023-12-14T13:54:35;99419.44;;;9.64;53.57
11172;BME280;5642;50.830;12.082;2023-12-14T13:57:05;99438.66;;;9.62;53.77